createdAt,value
2019-05-19T00:01:00.409Z,92.04
2019-05-19T00:03:26.224Z,91.83
2019-05-19T00:05:52.011Z,92.07
2019-05-19T00:08:17.825Z,92.47
2019-05-19T00:10:43.609Z,92.57
2019-05-19T00:13:09.419Z,92.64
2019-05-19T00:15:35.299Z,92.73
2019-05-19T00:18:01.131Z,92.71
2019-05-19T00:20:26.902Z,92.44
2019-05-19T00:22:52.697Z,91.94
2019-05-19T00:25:18.497Z,91.99
2019-05-19T00:27:44.291Z,91.88
2019-05-19T00:30:10.783Z,92.23
2019-05-19T00:32:36.591Z,92.30
2019-05-19T00:35:04.181Z,92.05
2019-05-19T00:37:30.019Z,92.42
2019-05-19T00:39:55.808Z,92.60
2019-05-19T00:42:21.602Z,92.83
2019-05-19T00:44:47.403Z,92.74
2019-05-19T00:47:13.190Z,92.79
2019-05-19T00:49:41.604Z,92.43
2019-05-19T00:52:06.695Z,92.56
2019-05-19T00:54:32.494Z,92.03
2019-05-19T00:56:59.086Z,91.85
2019-05-19T00:59:25.389Z,91.81
2019-05-19T01:01:51.179Z,91.63
2019-05-19T01:04:17.261Z,91.72
2019-05-19T01:06:43.062Z,92.00
2019-05-19T01:09:08.881Z,91.87
2019-05-19T01:11:34.663Z,92.49
2019-05-19T01:14:00.497Z,92.82
2019-05-19T01:16:26.278Z,93.23
2019-05-19T01:18:52.230Z,93.45
2019-05-19T01:21:18.139Z,93.45
2019-05-19T01:23:43.945Z,93.50
2019-05-19T01:26:09.735Z,93.63
2019-05-19T01:28:35.579Z,93.73
2019-05-19T01:31:01.395Z,93.59
2019-05-19T01:33:27.261Z,93.77
2019-05-19T01:35:53.193Z,94.15
2019-05-19T01:38:18.996Z,93.85
2019-05-19T01:40:44.918Z,93.85
2019-05-19T01:43:10.768Z,93.83
2019-05-19T01:45:36.585Z,93.89
2019-05-19T01:48:02.366Z,93.81
2019-05-19T01:50:28.269Z,93.75
2019-05-19T01:52:54.241Z,93.67
2019-05-19T01:55:20.050Z,93.61
2019-05-19T01:57:45.858Z,93.91
2019-05-19T02:00:11.769Z,94.09
2019-05-19T02:02:37.565Z,94.13
2019-05-19T02:05:06.951Z,94.20
2019-05-19T02:07:32.864Z,94.24
2019-05-19T02:09:58.672Z,94.16
2019-05-19T02:12:24.494Z,94.11
2019-05-19T02:14:50.329Z,93.93
2019-05-19T02:17:16.123Z,93.84
2019-05-19T02:19:41.926Z,94.00
2019-05-19T02:22:07.730Z,93.79
2019-05-19T02:24:33.523Z,93.89
2019-05-19T02:26:59.331Z,93.73
2019-05-19T02:29:25.136Z,93.81
2019-05-19T02:31:50.936Z,94.07
2019-05-19T02:34:16.716Z,94.18
2019-05-19T02:36:42.548Z,94.34
2019-05-19T02:39:08.331Z,94.58
2019-05-19T02:41:35.736Z,94.44
2019-05-19T02:44:01.629Z,94.67
2019-05-19T02:46:28.183Z,95.12
2019-05-19T02:48:54.340Z,94.73
2019-05-19T02:51:21.174Z,94.73
2019-05-19T02:53:47.387Z,94.80
2019-05-19T02:56:13.602Z,94.73
2019-05-19T02:58:39.822Z,94.66
2019-05-19T03:01:05.621Z,94.71
2019-05-19T03:03:31.423Z,94.93
2019-05-19T03:05:57.260Z,94.92
2019-05-19T03:08:23.070Z,94.92
2019-05-19T03:10:48.858Z,94.78
2019-05-19T03:13:14.670Z,94.84
2019-05-19T03:15:40.468Z,94.92
2019-05-19T03:18:06.266Z,94.81
2019-05-19T03:20:32.050Z,94.90
2019-05-19T03:22:57.881Z,94.94
2019-05-19T03:25:23.696Z,94.95
2019-05-19T03:27:49.505Z,95.28
2019-05-19T03:30:29.515Z,94.92
2019-05-19T03:32:57.237Z,95.38
2019-05-19T03:35:23.144Z,95.28
2019-05-19T03:37:48.951Z,95.20
2019-05-19T03:40:20.242Z,95.22
2019-05-19T03:42:47.877Z,95.21
2019-05-19T03:45:13.688Z,95.12
2019-05-19T03:47:39.512Z,95.15
2019-05-19T03:50:05.394Z,95.08
2019-05-19T03:52:31.269Z,94.95
2019-05-19T03:54:57.029Z,95.45
2019-05-19T03:57:22.846Z,95.51
2019-05-19T03:59:48.653Z,95.50
2019-05-19T04:02:14.470Z,95.46
2019-05-19T04:04:40.261Z,95.56
2019-05-19T04:07:06.069Z,95.79
2019-05-19T04:09:31.899Z,95.42
2019-05-19T04:11:57.673Z,95.52
2019-05-19T04:14:24.224Z,95.70
2019-05-19T04:16:50.713Z,95.58
2019-05-19T04:19:16.521Z,95.70
2019-05-19T04:21:48.958Z,95.70
2019-05-19T04:24:10.014Z,95.84
2019-05-19T04:26:35.799Z,95.72
2019-05-19T04:29:01.627Z,95.79
2019-05-19T04:31:27.444Z,96.04
2019-05-19T04:33:53.237Z,96.13
2019-05-19T04:36:19.035Z,96.07
2019-05-19T04:38:44.846Z,95.75
2019-05-19T04:41:10.628Z,95.89
2019-05-19T04:43:36.431Z,95.61
2019-05-19T04:46:02.236Z,95.57
2019-05-19T04:48:28.050Z,95.25
2019-05-19T04:50:53.844Z,95.45
2019-05-19T04:53:19.643Z,95.44
2019-05-19T04:55:45.460Z,95.41
2019-05-19T04:58:11.243Z,95.68
2019-05-19T05:00:37.039Z,95.52
2019-05-19T05:03:02.838Z,95.72
2019-05-19T05:05:28.654Z,95.84
2019-05-19T05:07:54.461Z,95.81
2019-05-19T05:10:20.280Z,95.74
2019-05-19T05:12:46.094Z,95.37
2019-05-19T05:15:12.090Z,95.21
2019-05-19T05:17:37.875Z,95.45
2019-05-19T05:20:04.979Z,95.55
2019-05-19T05:22:30.770Z,95.49
2019-05-19T05:24:56.585Z,95.38
2019-05-19T05:27:22.368Z,95.39
2019-05-19T05:29:48.192Z,94.93
2019-05-19T05:32:13.966Z,95.08
2019-05-19T05:34:39.804Z,94.49
2019-05-19T05:37:05.606Z,94.69
2019-05-19T05:39:31.397Z,94.63
2019-05-19T05:41:57.193Z,94.44
2019-05-19T05:44:22.999Z,94.37
2019-05-19T05:46:48.811Z,94.65
2019-05-19T05:49:14.612Z,93.83
2019-05-19T05:51:40.404Z,93.51
2019-05-19T05:54:06.216Z,93.29
2019-05-19T05:56:32.057Z,93.52
2019-05-19T05:58:57.840Z,93.52
2019-05-19T06:01:23.707Z,93.60
2019-05-19T06:03:49.537Z,93.48
2019-05-19T06:06:15.362Z,93.12
2019-05-19T06:08:41.166Z,93.24
2019-05-19T06:11:07.083Z,92.61
2019-05-19T06:13:32.874Z,92.56
2019-05-19T06:15:58.690Z,92.94
2019-05-19T06:18:24.478Z,92.64
2019-05-19T06:20:50.256Z,91.72
2019-05-19T06:23:16.060Z,91.55
2019-05-19T06:25:41.866Z,91.30
2019-05-19T06:28:07.669Z,91.20
2019-05-19T06:30:33.456Z,91.06
2019-05-19T06:33:00.770Z,90.32
2019-05-19T06:35:26.562Z,90.67
2019-05-19T06:37:52.359Z,90.26
2019-05-19T06:40:18.155Z,90.26
2019-05-19T06:42:43.955Z,90.29
2019-05-19T06:45:11.048Z,89.40
2019-05-19T06:47:36.875Z,88.96
2019-05-19T06:50:07.171Z,88.98
2019-05-19T06:52:32.963Z,87.90
2019-05-19T06:54:58.778Z,89.14
2019-05-19T06:57:24.604Z,88.70
2019-05-19T06:59:50.387Z,88.39
2019-05-19T07:02:16.256Z,87.32
2019-05-19T07:04:42.092Z,87.34
2019-05-19T07:07:07.961Z,87.41
2019-05-19T07:09:33.817Z,88.14
2019-05-19T07:11:59.664Z,87.51
2019-05-19T07:14:25.449Z,87.55
2019-05-19T07:16:51.290Z,87.60
2019-05-19T07:19:17.179Z,88.14
2019-05-19T07:21:42.963Z,87.30
2019-05-19T07:24:08.773Z,86.56
2019-05-19T07:26:34.567Z,86.77
2019-05-19T07:29:00.400Z,86.68
2019-05-19T07:31:26.202Z,86.29
2019-05-19T07:33:52.019Z,86.39
2019-05-19T07:36:17.801Z,86.74
2019-05-19T07:38:43.598Z,85.95
2019-05-19T07:41:09.410Z,85.26
2019-05-19T07:43:35.217Z,84.56
2019-05-19T07:46:01.013Z,83.89
2019-05-19T07:48:26.823Z,82.87
2019-05-19T07:50:52.606Z,81.59
2019-05-19T07:53:18.445Z,83.89
2019-05-19T07:55:44.750Z,82.16
2019-05-19T07:58:10.530Z,82.20
2019-05-19T08:00:36.380Z,82.24
2019-05-19T08:03:02.364Z,81.47
2019-05-19T08:05:28.195Z,80.50
2019-05-19T08:07:53.982Z,81.10
2019-05-19T08:10:20.000Z,79.18
2019-05-19T08:12:45.795Z,80.18
2019-05-19T08:15:11.909Z,79.60
2019-05-19T08:17:37.718Z,80.33
2019-05-19T08:20:06.937Z,80.04
2019-05-19T08:22:32.753Z,78.68
2019-05-19T08:24:58.551Z,77.58
2019-05-19T08:27:24.334Z,76.78
2019-05-19T08:29:50.173Z,77.95
2019-05-19T08:32:15.956Z,78.43
2019-05-19T08:34:41.753Z,79.67
2019-05-19T08:37:07.553Z,78.33
2019-05-19T08:39:33.371Z,78.48
2019-05-19T08:41:59.155Z,77.08
2019-05-19T08:44:24.979Z,75.95
2019-05-19T08:46:50.758Z,74.67
2019-05-19T08:49:16.569Z,75.14
2019-05-19T08:51:42.408Z,74.16
2019-05-19T08:54:14.997Z,73.12
2019-05-19T08:56:36.014Z,73.22
2019-05-19T08:59:01.842Z,73.48
2019-05-19T09:01:27.700Z,73.48
2019-05-19T09:03:53.604Z,73.73
2019-05-19T09:06:19.426Z,74.16
2019-05-19T09:08:45.234Z,73.87
2019-05-19T09:11:11.036Z,72.55
2019-05-19T09:13:36.854Z,69.99
2019-05-19T09:16:02.863Z,70.27
2019-05-19T09:18:28.663Z,67.83
2019-05-19T09:20:54.778Z,66.59
2019-05-19T09:23:20.675Z,69.00
2019-05-19T09:25:46.485Z,67.32
2019-05-19T09:28:13.170Z,67.41
2019-05-19T09:30:38.980Z,68.28
2019-05-19T09:33:04.808Z,68.54
2019-05-19T09:35:30.671Z,68.90
2019-05-19T09:37:56.493Z,69.20
2019-05-19T09:40:22.368Z,65.21
2019-05-19T09:42:48.421Z,64.51
2019-05-19T09:45:14.364Z,63.08
2019-05-19T09:47:40.356Z,61.98
2019-05-19T09:50:06.977Z,63.00
2019-05-19T09:52:32.809Z,62.05
2019-05-19T09:54:58.865Z,61.25
2019-05-19T09:57:24.760Z,60.94
2019-05-19T09:59:51.819Z,60.15
2019-05-19T10:02:17.708Z,59.48
2019-05-19T10:04:45.519Z,59.66
2019-05-19T10:07:11.385Z,61.61
2019-05-19T10:10:03.181Z,62.03
2019-05-19T10:12:28.981Z,62.95
2019-05-19T10:14:54.791Z,63.58
2019-05-19T10:17:20.868Z,64.43
2019-05-19T10:19:46.673Z,62.81
2019-05-19T10:22:13.452Z,62.34
2019-05-19T10:24:39.299Z,61.80
2019-05-19T10:27:05.123Z,61.85
2019-05-19T10:29:34.245Z,60.35
2019-05-19T10:32:00.082Z,60.01
2019-05-19T10:34:25.974Z,59.75
2019-05-19T10:36:52.709Z,58.86
2019-05-19T10:39:18.891Z,58.36
2019-05-19T10:41:45.333Z,56.86
2019-05-19T10:44:11.248Z,57.77
2019-05-19T10:46:39.263Z,60.38
2019-05-19T10:51:59.067Z,59.85
2019-05-19T10:54:26.131Z,56.87
2019-05-19T10:56:55.815Z,57.46
2019-05-19T10:59:22.388Z,57.59
2019-05-19T11:01:50.826Z,56.53
2019-05-19T11:04:17.008Z,57.31
2019-05-19T11:06:46.477Z,55.53
2019-05-19T11:09:12.974Z,54.13
2019-05-19T11:11:39.242Z,55.69
2019-05-19T11:14:06.283Z,56.72
2019-05-19T11:16:37.154Z,54.99
2019-05-19T11:19:03.303Z,56.05
2019-05-19T11:21:29.187Z,54.19
2019-05-19T11:23:55.004Z,54.43
2019-05-19T11:26:21.036Z,53.26
2019-05-19T11:28:46.976Z,53.59
2019-05-19T11:31:12.736Z,53.53
2019-05-19T11:33:38.615Z,54.87
2019-05-19T11:36:06.007Z,54.80
2019-05-19T11:38:31.875Z,54.01
2019-05-19T11:40:57.667Z,53.97
2019-05-19T11:43:23.566Z,54.34
2019-05-19T11:45:49.412Z,53.74
2019-05-19T11:48:15.218Z,53.59
2019-05-19T11:50:42.221Z,52.14
2019-05-19T11:53:08.207Z,50.38
2019-05-19T11:55:34.023Z,51.54
2019-05-19T11:57:59.849Z,52.18
2019-05-19T12:00:25.762Z,50.85
2019-05-19T12:02:51.549Z,51.78
2019-05-19T12:05:17.417Z,51.46
2019-05-19T12:07:43.196Z,52.39
2019-05-19T12:10:09.093Z,51.63
2019-05-19T12:12:34.916Z,52.55
2019-05-19T12:15:00.876Z,51.92
2019-05-19T12:17:26.706Z,52.68
2019-05-19T12:19:53.442Z,51.91
2019-05-19T12:22:20.351Z,52.67
2019-05-19T12:24:47.150Z,52.05
2019-05-19T12:27:13.757Z,51.58
2019-05-19T12:29:40.398Z,50.71
2019-05-19T12:32:07.243Z,51.85
2019-05-19T12:34:34.318Z,51.13
2019-05-19T12:37:00.235Z,49.88
2019-05-19T12:39:26.031Z,49.68
2019-05-19T12:41:51.831Z,50.04
2019-05-19T12:44:17.623Z,50.53
2019-05-19T12:46:43.438Z,50.47
2019-05-19T12:49:09.244Z,50.32
2019-05-19T12:51:35.171Z,51.57
2019-05-19T12:54:00.973Z,50.99
2019-05-19T12:56:39.235Z,51.40
2019-05-19T12:58:54.456Z,50.93
2019-05-19T13:01:20.355Z,50.75
2019-05-19T13:03:46.161Z,51.54
2019-05-19T13:06:11.962Z,50.47
2019-05-19T13:08:37.753Z,49.71
2019-05-19T13:11:03.594Z,49.61
2019-05-19T13:13:29.431Z,50.12
2019-05-19T13:15:55.255Z,49.48
2019-05-19T13:21:02.940Z,48.65
2019-05-19T13:23:28.738Z,48.15
2019-05-19T13:25:54.546Z,49.84
2019-05-19T13:28:21.388Z,50.27
2019-05-19T13:30:47.437Z,51.20
2019-05-19T13:33:13.361Z,52.18
2019-05-19T13:35:39.191Z,51.44
2019-05-19T13:38:05.079Z,50.40
2019-05-19T13:40:30.884Z,50.82
2019-05-19T13:42:56.691Z,49.38
2019-05-19T13:45:22.673Z,49.90
2019-05-19T13:47:48.540Z,51.70
2019-05-19T13:50:14.467Z,50.39
2019-05-19T13:52:40.260Z,49.59
2019-05-19T13:55:06.160Z,49.61
2019-05-19T13:57:32.046Z,49.20
2019-05-19T13:59:57.838Z,48.28
2019-05-19T14:02:23.665Z,47.76
2019-05-19T14:04:49.477Z,48.74
2019-05-19T14:07:15.263Z,49.25
2019-05-19T14:12:23.578Z,50.07
2019-05-19T14:14:49.392Z,49.61
2019-05-19T14:17:15.248Z,49.31
2019-05-19T14:19:41.031Z,48.60
2019-05-19T14:22:06.845Z,49.05
2019-05-19T14:24:32.641Z,49.68
2019-05-19T14:26:58.545Z,50.07
2019-05-19T14:29:24.345Z,50.33
2019-05-19T14:31:50.149Z,51.08
2019-05-19T14:34:15.986Z,51.54
2019-05-19T14:36:41.875Z,51.49
2019-05-19T14:39:07.744Z,52.28
2019-05-19T14:41:35.452Z,52.29
2019-05-19T14:44:01.842Z,53.66
2019-05-19T14:46:27.647Z,53.68
2019-05-19T14:48:53.500Z,54.79
2019-05-19T14:51:19.401Z,55.51
2019-05-19T14:53:45.213Z,55.54
2019-05-19T14:56:11.055Z,55.66
2019-05-19T14:58:36.937Z,55.61
2019-05-19T15:01:02.850Z,56.13
2019-05-19T15:03:28.637Z,55.54
2019-05-19T15:05:54.510Z,56.65
2019-05-19T15:08:20.313Z,56.86
2019-05-19T15:10:46.116Z,57.38
2019-05-19T15:13:11.911Z,57.07
2019-05-19T15:15:37.745Z,57.98
2019-05-19T15:18:03.586Z,58.33
2019-05-19T15:20:29.470Z,57.54
2019-05-19T15:22:55.454Z,57.35
2019-05-19T15:25:21.278Z,57.81
2019-05-19T15:27:59.266Z,57.57
2019-05-19T15:30:14.864Z,57.68
2019-05-19T15:32:40.697Z,57.41
2019-05-19T15:35:06.680Z,56.69
2019-05-19T15:37:32.523Z,57.04
2019-05-19T15:39:58.323Z,56.45
2019-05-19T15:42:24.174Z,56.39
2019-05-19T15:44:50.060Z,55.84
2019-05-19T15:47:15.871Z,56.15
2019-05-19T15:49:41.693Z,55.58
2019-05-19T15:52:07.562Z,55.73
2019-05-19T15:54:33.564Z,56.19
2019-05-19T15:56:59.406Z,56.39
2019-05-19T15:59:25.310Z,56.08
2019-05-19T16:01:51.336Z,55.66
2019-05-19T16:04:17.242Z,56.35
2019-05-19T16:06:43.083Z,56.57
2019-05-19T16:09:08.906Z,57.65
2019-05-19T16:11:34.779Z,57.25
2019-05-19T16:14:00.742Z,56.78
2019-05-19T16:16:26.669Z,58.17
2019-05-19T16:18:53.338Z,58.98
2019-05-19T16:21:19.720Z,59.18
2019-05-19T16:23:45.928Z,59.59
2019-05-19T16:26:11.777Z,59.63
2019-05-19T16:28:37.577Z,59.79
2019-05-19T16:31:03.385Z,60.34
2019-05-19T16:33:29.199Z,59.65
2019-05-19T16:35:55.025Z,59.44
2019-05-19T16:38:20.859Z,60.30
2019-05-19T16:40:46.670Z,60.59
2019-05-19T16:43:12.711Z,62.02
2019-05-19T16:45:38.491Z,62.05
2019-05-19T16:48:04.515Z,62.55
2019-05-19T16:50:30.375Z,63.11
2019-05-19T16:52:56.181Z,63.27
2019-05-19T16:55:23.910Z,63.78
2019-05-19T16:57:49.718Z,64.68
2019-05-19T17:00:15.741Z,65.31
2019-05-19T17:02:41.642Z,66.09
2019-05-19T17:05:07.519Z,66.47
2019-05-19T17:07:33.381Z,67.36
2019-05-19T17:09:59.295Z,67.91
2019-05-19T17:12:25.165Z,68.05
2019-05-19T17:14:50.965Z,68.20
2019-05-19T17:17:16.844Z,68.86
2019-05-19T17:19:42.734Z,69.11
2019-05-19T17:22:08.582Z,69.92
2019-05-19T17:24:34.373Z,70.94
2019-05-19T17:27:00.230Z,71.23
2019-05-19T17:29:26.023Z,71.55
2019-05-19T17:32:05.118Z,72.04
2019-05-19T17:34:19.537Z,72.80
2019-05-19T17:36:45.437Z,73.17
2019-05-19T17:39:11.252Z,73.65
2019-05-19T17:41:37.068Z,73.62
2019-05-19T17:44:02.893Z,74.07
2019-05-19T17:46:28.785Z,74.14
2019-05-19T17:48:54.602Z,73.88
2019-05-19T17:51:20.488Z,73.94
2019-05-19T17:53:46.400Z,73.80
2019-05-19T17:56:12.186Z,73.98
2019-05-19T17:58:38.200Z,74.23
2019-05-19T18:01:03.997Z,74.11
2019-05-19T18:03:29.881Z,74.20
2019-05-19T18:05:55.675Z,74.26
2019-05-19T18:08:21.473Z,74.60
2019-05-19T18:10:47.293Z,74.94
2019-05-19T18:13:13.072Z,74.99
2019-05-19T18:15:38.899Z,75.68
2019-05-19T18:18:04.685Z,75.95
2019-05-19T18:20:30.475Z,76.01
2019-05-19T18:22:56.275Z,76.59
2019-05-19T18:25:22.122Z,77.00
2019-05-19T18:27:47.909Z,77.22
2019-05-19T18:30:14.025Z,77.54
2019-05-19T18:32:39.875Z,77.57
2019-05-19T18:35:05.784Z,77.24
2019-05-19T18:37:31.598Z,77.19
2019-05-19T18:39:57.407Z,77.28
2019-05-19T18:42:23.203Z,77.30
2019-05-19T18:44:49.001Z,77.34
2019-05-19T18:47:14.814Z,77.46
2019-05-19T18:49:40.619Z,77.59
2019-05-19T18:52:06.610Z,77.79
2019-05-19T18:54:32.407Z,78.34
2019-05-19T18:56:58.225Z,79.07
2019-05-19T18:59:24.033Z,79.35
2019-05-19T19:01:49.854Z,79.35
2019-05-19T19:04:15.688Z,80.12
2019-05-19T19:06:41.482Z,80.12
2019-05-19T19:09:07.289Z,80.31
2019-05-19T19:11:36.030Z,80.85
2019-05-19T19:14:01.850Z,80.93
2019-05-19T19:16:27.673Z,82.40
2019-05-19T19:18:53.481Z,82.40
2019-05-19T19:21:19.278Z,83.02
2019-05-19T19:23:45.110Z,83.28
2019-05-19T19:26:11.315Z,83.90
2019-05-19T19:28:37.686Z,83.75
2019-05-19T19:31:03.589Z,84.75
2019-05-19T19:33:29.389Z,84.63
2019-05-19T19:35:55.200Z,84.93
2019-05-19T19:38:21.024Z,85.42
2019-05-19T19:40:46.829Z,85.59
2019-05-19T19:43:12.630Z,85.91
2019-05-19T19:45:38.503Z,85.80
2019-05-19T19:48:04.313Z,86.27
2019-05-19T19:50:30.207Z,86.22
2019-05-19T19:52:56.311Z,86.82
2019-05-19T19:55:22.085Z,86.83
2019-05-19T19:57:47.891Z,86.74
2019-05-19T20:00:29.220Z,86.86
2019-05-19T20:02:55.009Z,87.06
2019-05-19T20:05:20.821Z,87.53
2019-05-19T20:07:46.629Z,87.65
2019-05-19T20:10:12.426Z,87.73
2019-05-19T20:12:38.248Z,87.68
2019-05-19T20:15:04.546Z,87.27
2019-05-19T20:17:30.345Z,87.53
2019-05-19T20:19:56.151Z,87.78
2019-05-19T20:22:22.001Z,87.63
2019-05-19T20:24:48.049Z,87.80
2019-05-19T20:27:13.944Z,87.91
2019-05-19T20:29:40.005Z,87.59
2019-05-19T20:32:06.075Z,87.79
2019-05-19T20:34:31.858Z,87.73
2019-05-19T20:36:57.668Z,87.96
2019-05-19T20:39:23.460Z,88.37
2019-05-19T20:41:49.241Z,88.03
2019-05-19T20:44:15.032Z,88.40
2019-05-19T20:46:41.168Z,88.91
2019-05-19T20:49:06.976Z,89.15
2019-05-19T20:51:32.783Z,89.14
2019-05-19T20:53:58.756Z,89.54
2019-05-19T20:56:26.054Z,89.68
2019-05-19T20:58:51.859Z,89.82
2019-05-19T21:01:17.674Z,90.25
2019-05-19T21:03:43.470Z,90.19
2019-05-19T21:06:09.260Z,89.93
2019-05-19T21:08:35.077Z,90.12
2019-05-19T21:11:00.866Z,90.26
2019-05-19T21:13:26.689Z,90.64
2019-05-19T21:15:52.501Z,90.55
2019-05-19T21:18:18.316Z,90.71
2019-05-19T21:20:44.134Z,90.95
2019-05-19T21:23:10.632Z,91.12
2019-05-19T21:25:36.560Z,91.16
2019-05-19T21:28:02.937Z,91.53
2019-05-19T21:30:28.845Z,92.14
2019-05-19T21:32:54.637Z,92.24
2019-05-19T21:35:20.456Z,92.30
2019-05-19T21:37:46.230Z,92.77
2019-05-19T21:40:12.146Z,92.77
2019-05-19T21:42:37.948Z,93.20
2019-05-19T21:45:05.264Z,93.43
2019-05-19T21:47:31.066Z,94.12
2019-05-19T21:49:56.889Z,94.05
2019-05-19T21:52:22.693Z,94.00
2019-05-19T21:54:48.503Z,93.83
2019-05-19T21:57:14.285Z,94.07
2019-05-19T21:59:40.102Z,94.22
2019-05-19T22:02:06.415Z,94.27
2019-05-19T22:04:32.191Z,94.52
2019-05-19T22:06:59.910Z,94.53
2019-05-19T22:09:25.698Z,94.75
2019-05-19T22:11:51.495Z,94.70
2019-05-19T22:14:17.325Z,94.70
2019-05-19T22:16:43.143Z,94.67
2019-05-19T22:19:08.942Z,94.95
2019-05-19T22:21:34.730Z,94.95
2019-05-19T22:24:00.541Z,94.57
2019-05-19T22:26:26.346Z,94.92
2019-05-19T22:28:52.162Z,95.11
2019-05-19T22:31:17.957Z,95.32
2019-05-19T22:33:43.765Z,95.25
2019-05-19T22:36:09.606Z,95.22
2019-05-19T22:38:35.401Z,95.22
2019-05-19T22:41:01.202Z,95.44
2019-05-19T22:43:27.006Z,95.21
2019-05-19T22:45:52.817Z,95.40
2019-05-19T22:48:18.609Z,95.62
2019-05-19T22:50:44.417Z,95.67
2019-05-19T22:53:10.221Z,95.92
2019-05-19T22:55:36.025Z,95.75
2019-05-19T22:58:01.835Z,95.80
2019-05-19T23:00:28.347Z,95.97
2019-05-19T23:02:54.135Z,95.95
2019-05-19T23:05:19.947Z,96.11
2019-05-19T23:07:45.745Z,95.92
2019-05-19T23:10:12.127Z,95.85
2019-05-19T23:12:37.927Z,96.06
2019-05-19T23:15:05.020Z,95.99
2019-05-19T23:17:30.838Z,96.11
2019-05-19T23:19:56.621Z,95.81
2019-05-19T23:22:22.526Z,95.66
2019-05-19T23:24:48.343Z,95.68
2019-05-19T23:27:14.155Z,95.70
2019-05-19T23:29:39.963Z,96.10
2019-05-19T23:32:07.391Z,95.98
2019-05-19T23:34:33.363Z,95.84
2019-05-19T23:36:59.158Z,95.54
2019-05-19T23:39:25.069Z,95.69
2019-05-19T23:41:50.914Z,96.09
2019-05-19T23:44:16.687Z,96.03
2019-05-19T23:46:42.467Z,95.83
2019-05-19T23:49:08.265Z,95.95
2019-05-19T23:51:34.064Z,95.64
2019-05-19T23:53:59.881Z,95.55
2019-05-19T23:56:25.665Z,95.21
2019-05-19T23:58:51.451Z,95.32
